地図

経路データ

SID SEASON NUMBER BASIN SUBBASIN NAME ISO_TIME NATURE LAT LON WMO_WIND WMO_PRES WMO_AGENCY TRACK_TYPE DIST2LAND LANDFALL IFLAG USA_AGENCY USA_ATCF_ID USA_LAT USA_LON USA_RECORD USA_STATUS USA_WIND USA_PRES USA_SSHS USA_R34_NE USA_R34_SE USA_R34_SW USA_R34_NW USA_R50_NE USA_R50_SE USA_R50_SW USA_R50_NW USA_R64_NE USA_R64_SE USA_R64_SW USA_R64_NW USA_POCI USA_ROCI USA_RMW USA_EYE TOKYO_LAT TOKYO_LON TOKYO_GRADE TOKYO_WIND TOKYO_PRES TOKYO_R50_DIR TOKYO_R50_LONG TOKYO_R50_SHORT TOKYO_R30_DIR TOKYO_R30_LONG TOKYO_R30_SHORT TOKYO_LAND CMA_LAT CMA_LON CMA_CAT CMA_WIND CMA_PRES HKO_LAT HKO_LON HKO_CAT HKO_WIND HKO_PRES NEWDELHI_LAT NEWDELHI_LON NEWDELHI_GRADE NEWDELHI_WIND NEWDELHI_PRES NEWDELHI_CI NEWDELHI_DP NEWDELHI_POCI REUNION_LAT REUNION_LON REUNION_TYPE REUNION_WIND REUNION_PRES REUNION_TNUM REUNION_CI REUNION_RMW REUNION_R34_NE REUNION_R34_SE REUNION_R34_SW REUNION_R34_NW REUNION_R50_NE REUNION_R50_SE REUNION_R50_SW REUNION_R50_NW REUNION_R64_NE REUNION_R64_SE REUNION_R64_SW REUNION_R64_NW BOM_LAT BOM_LON BOM_TYPE BOM_WIND BOM_PRES BOM_TNUM BOM_CI BOM_RMW BOM_R34_NE BOM_R34_SE BOM_R34_SW BOM_R34_NW BOM_R50_NE BOM_R50_SE BOM_R50_SW BOM_R50_NW BOM_R64_NE BOM_R64_SE BOM_R64_SW BOM_R64_NW BOM_ROCI BOM_POCI BOM_EYE BOM_POS_METHOD BOM_PRES_METHOD NADI_LAT NADI_LON NADI_CAT NADI_WIND NADI_PRES WELLINGTON_LAT WELLINGTON_LON WELLINGTON_WIND WELLINGTON_PRES DS824_LAT DS824_LON DS824_STAGE DS824_WIND DS824_PRES TD9636_LAT TD9636_LON TD9636_STAGE TD9636_WIND TD9636_PRES TD9635_LAT TD9635_LON TD9635_WIND TD9635_PRES TD9635_ROCI NEUMANN_LAT NEUMANN_LON NEUMANN_CLASS NEUMANN_WIND NEUMANN_PRES MLC_LAT MLC_LON MLC_CLASS MLC_WIND MLC_PRES USA_GUST BOM_GUST BOM_GUST_PER REUNION_GUST REUNION_GUST_PER USA_SEAHGT USA_SEARAD_NE USA_SEARAD_SE USA_SEARAD_SW USA_SEARAD_NW STORM_SPEED STORM_DIR
1902305S15061 1903 48 SI MM NOT_NAMED 1902-10-31 18:00:00 NR -14.5000 60.5000 main 693 666 __________O___ -1 -14.5000 60.5000 7 8 248
1902305S15061 1903 48 SI MM NOT_NAMED 1902-10-31 21:00:00 NR -14.6507 60.1131 main 655 633 __________P___ -1 -14.6507 60.1131 7 8 248
1902305S15061 1903 48 SI MM NOT_NAMED 1902-11-01 00:00:00 NR -14.7908 59.7407 main 629 609 __________P___ -1 -14.7908 59.7407 7 7 249
1902305S15061 1903 48 SI MM NOT_NAMED 1902-11-01 03:00:00 NR -14.9105 59.3980 main 609 589 __________P___ -1 -14.9105 59.3980 7 7 251
1902305S15061 1903 48 SI MM NOT_NAMED 1902-11-01 06:00:00 NR -15.0000 59.1000 main 589 573 __________O___ -1 -15.0000 59.1000 7 5 255
1902305S15061 1903 48 SI MM NOT_NAMED 1902-11-01 09:00:00 NR -15.0549 58.8549 main 573 569 __________P___ -1 -15.0549 58.8549 7 5 258
1902305S15061 1903 48 SI MM NOT_NAMED 1902-11-01 12:00:00 NR -15.0919 58.6419 main 567 564 __________P___ -1 -15.0919 58.6419 7 4 259
1902305S15061 1903 48 SI MM NOT_NAMED 1902-11-01 15:00:00 NR -15.1330 58.4330 main 564 550 __________P___ -1 -15.1330 58.4330 7 4 256
1902305S15061 1903 48 SI MM NOT_NAMED 1902-11-01 18:00:00 NR -15.2000 58.2000 main 550 537 __________O___ -1 -15.2000 58.2000 7 6 250
1902305S15061 1903 48 SI MM NOT_NAMED 1902-11-01 21:00:00 NR -15.3254 57.8999 main 537 514 __________P___ -1 -15.3254 57.8999 7 7 245
1902305S15061 1903 48 SI MM NOT_NAMED 1902-11-02 00:00:00 NR -15.4776 57.5727 main 514 503 __________P___ -1 -15.4776 57.5727 7 7 244
1902305S15061 1903 48 SI MM NOT_NAMED 1902-11-02 03:00:00 NR -15.6410 57.2342 main 504 484 __________P___ -1 -15.6410 57.2342 7 7 244
1902305S15061 1903 48 SI MM NOT_NAMED 1902-11-02 06:00:00 NR -15.8000 56.9000 main 485 475 __________O___ -1 -15.8000 56.9000 7 7 246
1902305S15061 1903 48 SI MM NOT_NAMED 1902-11-02 09:00:00 NR -15.9240 56.5804 main 479 470 __________P___ -1 -15.9240 56.5804 7 7 248
1902305S15061 1903 48 SI MM NOT_NAMED 1902-11-02 12:00:00 NR -16.0424 56.2697 main 475 464 __________P___ -1 -16.0424 56.2697 7 6 248
1902305S15061 1903 48 SI MM NOT_NAMED 1902-11-02 15:00:00 NR -16.1647 55.9742 main 464 461 __________P___ -1 -16.1647 55.9742 7 6 245
1902305S15061 1903 48 SI MM NOT_NAMED 1902-11-02 18:00:00 NR -16.3000 55.7000 main 465 454 __________O___ -1 -16.3000 55.7000 7 6 239
1902305S15061 1903 48 SI MM NOT_NAMED 1902-11-02 21:00:00 NR -16.4645 55.4493 main 459 455 __________P___ -1 -16.4645 55.4493 7 6 233
1902305S15061 1903 48 SI MM NOT_NAMED 1902-11-03 00:00:00 NR -16.6423 55.2199 main 460 447 __________P___ -1 -16.6423 55.2199 7 6 230
1902305S15061 1903 48 SI MM NOT_NAMED 1902-11-03 03:00:00 NR -16.8239 55.0056 main 453 442 __________P___ -1 -16.8239 55.0056 7 5 228
1902305S15061 1903 48 SI MM NOT_NAMED 1902-11-03 06:00:00 NR -17.0000 54.8000 main 448 440 __________O___ -1 -17.0000 54.8000 7 5 230
1902305S15061 1903 48 SI MM NOT_NAMED 1902-11-03 09:00:00 NR -17.1571 54.5927 main 431 422 __________P___ -1 -17.1571 54.5927 7 5 232
1902305S15061 1903 48 SI MM NOT_NAMED 1902-11-03 12:00:00 NR -17.3074 54.3923 main 424 416 __________P___ -1 -17.3074 54.3923 7 5 232
1902305S15061 1903 48 SI MM NOT_NAMED 1902-11-03 15:00:00 NR -17.4540 54.1958 main 408 400 __________P___ -1 -17.4540 54.1958 7 5 232
1902305S15061 1903 48 SI MM NOT_NAMED 1902-11-03 18:00:00 NR -17.6000 54.0000 main 404 397 __________O___ -1 -17.6000 54.0000 7 5 232
1902305S15061 1903 48 SI MM NOT_NAMED 1902-11-03 21:00:00 NR -17.7540 53.7999 main 390 385 __________P___ -1 -17.7540 53.7999 7 5 231
1902305S15061 1903 48 SI MM NOT_NAMED 1902-11-04 00:00:00 NR -17.9074 53.5999 main 389 384 __________P___ -1 -17.9074 53.5999 7 5 232
1902305S15061 1903 48 SI MM NOT_NAMED 1902-11-04 03:00:00 NR -18.0571 53.3999 main 380 376 __________P___ -1 -18.0571 53.3999 7 5 232
1902305S15061 1903 48 SI MM NOT_NAMED 1902-11-04 06:00:00 NR -18.2000 53.2000 main 382 376 __________O___ -1 -18.2000 53.2000 7 5 235
1902305S15061 1903 48 SI MM NOT_NAMED 1902-11-04 09:00:00 NR -18.3281 52.9918 main 376 357 __________P___ -1 -18.3281 52.9918 7 5 238
1902305S15061 1903 48 SI MM NOT_NAMED 1902-11-04 12:00:00 NR -18.4500 52.7849 main 360 339 __________P___ -1 -18.4500 52.7849 7 5 238
1902305S15061 1903 48 SI MM NOT_NAMED 1902-11-04 15:00:00 NR -18.5719 52.5855 main 340 321 __________P___ -1 -18.5719 52.5855 7 4 236
1902305S15061 1903 48 SI MM NOT_NAMED 1902-11-04 18:00:00 NR -18.7000 52.4000 main 321 302 __________O___ -1 -18.7000 52.4000 7 4 231
1902305S15061 1903 48 SI MM NOT_NAMED 1902-11-04 21:00:00 NR -18.8391 52.2326 main 302 295 __________P___ -1 -18.8391 52.2326 7 4 227
1902305S15061 1903 48 SI MM NOT_NAMED 1902-11-05 00:00:00 NR -18.9875 52.0802 main 298 281 __________P___ -1 -18.9875 52.0802 7 4 223
1902305S15061 1903 48 SI MM NOT_NAMED 1902-11-05 03:00:00 NR -19.1422 51.9377 main 281 276 __________P___ -1 -19.1422 51.9377 7 4 220
1902305S15061 1903 48 SI MM NOT_NAMED 1902-11-05 06:00:00 NR -19.3000 51.8000 main 281 __________O___ -1 -19.3000 51.8000 7 4 220

IBTrACS Databaseについて

本データベースは、米国NOAAが公開する1842年以降の世界の熱帯低気圧のベストトラックデータアーカイブInternational Best Track Archive for Climate Stewardship (IBTrACS)を、ウェブで閲覧しやすい形式に変換したものです。

最終更新日:2021-12-01